createdAt,value
2019-04-03T00:00:41.435Z,5.50
2019-04-03T00:10:53.384Z,7.10
2019-04-03T00:13:21.740Z,5.60
2019-04-03T00:15:51.062Z,5.70
2019-04-03T00:18:19.445Z,5.20
2019-04-03T00:20:48.671Z,5.53
2019-04-03T00:23:16.209Z,6.00
2019-04-03T00:25:45.545Z,6.75
2019-04-03T00:28:13.910Z,6.33
2019-04-03T00:35:51.708Z,7.20
2019-04-03T00:38:19.312Z,6.40
2019-04-03T00:40:47.629Z,6.53
2019-04-03T00:43:15.964Z,6.60
2019-04-03T00:45:45.286Z,6.80
2019-04-03T00:50:48.770Z,8.15
2019-04-03T00:53:17.096Z,7.37
2019-04-03T01:06:03.049Z,8.30
2019-04-03T01:08:32.873Z,8.23
2019-04-03T01:13:37.840Z,7.93
2019-04-03T01:16:06.378Z,7.33
2019-04-03T01:18:35.136Z,7.57
2019-04-03T01:21:02.784Z,7.67
2019-04-03T01:23:31.514Z,7.90
2019-04-03T01:25:59.952Z,7.93
2019-04-03T01:28:28.336Z,8.40
2019-04-03T01:30:56.786Z,6.97
2019-04-03T01:33:24.997Z,7.10
2019-04-03T01:35:53.356Z,8.00
2019-04-03T01:38:21.843Z,7.70
2019-04-03T01:40:51.173Z,7.17
2019-04-03T01:43:19.436Z,7.10
2019-04-03T01:45:47.795Z,6.80
2019-04-03T01:48:16.140Z,7.00
2019-04-03T01:50:45.416Z,6.90
2019-04-03T01:55:48.011Z,8.25
2019-04-03T01:58:16.388Z,7.13
2019-04-03T02:00:44.805Z,6.77
2019-04-03T02:03:14.068Z,6.97
2019-04-03T02:08:16.584Z,8.20
2019-04-03T02:10:45.399Z,7.37
2019-04-03T02:13:13.598Z,7.97
2019-04-03T02:15:41.868Z,6.83
2019-04-03T02:18:10.204Z,7.53
2019-04-03T02:20:39.583Z,7.23
2019-04-03T02:23:07.892Z,7.77
2019-04-03T02:25:36.879Z,7.10
2019-04-03T02:28:05.132Z,7.00
2019-04-03T02:30:34.126Z,8.30
2019-04-03T02:33:02.459Z,8.37
2019-04-03T02:35:31.374Z,7.70
2019-04-03T02:37:59.684Z,7.20
2019-04-03T02:40:31.481Z,7.87
2019-04-03T02:42:56.862Z,8.57
2019-04-03T02:45:25.152Z,8.70
2019-04-03T02:47:54.716Z,8.23
2019-04-03T02:50:24.312Z,8.23
2019-04-03T02:55:26.849Z,8.75
2019-04-03T02:57:55.306Z,9.10
2019-04-03T03:00:23.802Z,8.17
2019-04-03T03:02:51.958Z,7.70
2019-04-03T03:05:20.365Z,7.27
2019-04-03T03:07:48.712Z,7.90
2019-04-03T03:10:19.477Z,7.90
2019-04-03T03:12:45.416Z,8.90
2019-04-03T03:15:13.781Z,9.07
2019-04-03T03:17:42.188Z,7.10
2019-04-03T03:22:44.790Z,9.20
2019-04-03T03:27:47.498Z,9.18
2019-04-03T03:30:41.836Z,8.87
2019-04-03T03:32:45.207Z,9.02
2019-04-03T03:35:18.201Z,7.77
2019-04-03T03:37:41.791Z,8.10
2019-04-03T03:40:10.221Z,8.40
2019-04-03T03:42:38.402Z,8.50
2019-04-03T03:45:06.774Z,8.87
2019-04-03T03:47:36.475Z,8.80
2019-04-03T03:50:04.331Z,8.10
2019-04-03T03:52:38.179Z,8.23
2019-04-03T03:55:05.312Z,9.93
2019-04-03T03:57:37.961Z,7.80
2019-04-03T04:00:03.343Z,7.17
2019-04-03T04:02:36.480Z,8.00
2019-04-03T04:05:03.045Z,8.63
2019-04-03T04:07:35.737Z,7.53
2019-04-03T04:10:02.402Z,8.10
2019-04-03T04:12:30.783Z,9.15
2019-04-03T04:14:58.939Z,9.13
2019-04-03T04:17:27.284Z,8.17
2019-04-03T04:19:55.641Z,7.77
2019-04-03T04:22:26.695Z,9.40
2019-04-03T04:24:52.448Z,10.30
2019-04-03T04:27:21.164Z,8.37
2019-04-03T04:29:49.242Z,8.50
2019-04-03T04:32:17.843Z,8.37
2019-04-03T04:34:49.250Z,8.00
2019-04-03T04:37:15.787Z,7.87
2019-04-03T04:39:44.306Z,8.10
2019-04-03T04:42:12.413Z,8.30
2019-04-03T04:44:41.576Z,8.60
2019-04-03T04:47:09.350Z,8.50
2019-04-03T04:49:37.769Z,10.20
2019-04-03T04:52:06.088Z,10.10
2019-04-03T04:54:37.119Z,8.13
2019-04-03T04:57:05.428Z,9.63
2019-04-03T04:59:37.064Z,8.40
2019-04-03T05:02:05.133Z,7.33
2019-04-03T05:04:36.839Z,7.97
2019-04-03T05:07:05.236Z,9.30
2019-04-03T05:09:36.620Z,8.50
2019-04-03T05:12:04.822Z,8.43
2019-04-03T05:14:35.531Z,8.33
2019-04-03T05:17:04.040Z,9.57
2019-04-03T05:19:34.908Z,11.10
2019-04-03T05:22:03.231Z,8.73
2019-04-03T05:24:33.030Z,11.10
2019-04-03T05:27:03.270Z,8.53
2019-04-03T05:29:30.393Z,9.20
2019-04-03T05:31:59.158Z,9.27
2019-04-03T05:34:27.513Z,9.20
2019-04-03T05:36:56.002Z,9.97
2019-04-03T05:39:24.709Z,10.40
2019-04-03T05:41:54.231Z,8.80
2019-04-03T05:44:23.726Z,9.00
2019-04-03T05:46:50.988Z,9.00
2019-04-03T05:49:19.699Z,9.77
2019-04-03T05:53:53.811Z,11.55
2019-04-03T05:56:20.424Z,10.90
2019-04-03T05:58:55.468Z,9.17
2019-04-03T06:01:17.041Z,9.00
2019-04-03T06:03:45.853Z,9.20
2019-04-03T06:06:14.426Z,10.85
2019-04-03T06:08:42.285Z,9.20
2019-04-03T06:13:47.480Z,11.65
2019-04-03T06:16:15.976Z,9.23
2019-04-03T06:18:42.529Z,11.20
2019-04-03T06:23:45.205Z,10.35
2019-04-03T06:26:14.517Z,8.80
2019-04-03T06:28:46.676Z,9.20
2019-04-03T06:31:12.287Z,8.60
2019-04-03T06:33:40.642Z,9.70
2019-04-03T06:36:09.073Z,13.17
2019-04-03T06:38:37.750Z,8.43
2019-04-03T06:41:07.919Z,9.20
2019-04-03T06:43:34.244Z,9.40
2019-04-03T06:46:02.557Z,9.30
2019-04-03T06:48:30.923Z,10.40
2019-04-03T06:50:59.309Z,10.53
2019-04-03T06:56:01.889Z,12.10
2019-04-03T06:58:38.016Z,10.73
2019-04-03T07:03:35.088Z,11.70
2019-04-03T07:06:03.440Z,11.45
2019-04-03T07:08:35.667Z,10.97
2019-04-03T07:11:00.046Z,11.52
2019-04-03T07:13:30.012Z,10.40
2019-04-03T07:15:57.349Z,11.20
2019-04-03T07:18:25.971Z,10.97
2019-04-03T07:20:54.061Z,11.47
2019-04-03T07:23:22.400Z,9.50
2019-04-03T07:25:51.093Z,12.02
2019-04-03T07:28:19.428Z,10.83
2019-04-03T07:30:47.821Z,11.50
2019-04-03T07:33:16.508Z,11.38
2019-04-03T07:38:19.760Z,11.23
2019-04-03T07:43:21.571Z,11.40
2019-04-03T07:45:49.921Z,10.43
2019-04-03T07:48:18.272Z,10.40
2019-04-03T07:50:46.630Z,9.80
2019-04-03T07:53:15.992Z,9.77
2019-04-03T07:55:45.388Z,10.10
2019-04-03T07:58:13.768Z,9.57
2019-04-03T08:00:43.097Z,10.57
2019-04-03T08:03:11.446Z,10.30
2019-04-03T08:05:39.841Z,10.67
2019-04-03T08:08:08.465Z,10.37
2019-04-03T08:10:37.770Z,10.67
2019-04-03T08:13:06.480Z,10.20
2019-04-03T08:15:33.423Z,10.57
2019-04-03T08:20:36.142Z,11.80
2019-04-03T08:23:05.666Z,10.93
2019-04-03T08:25:33.209Z,11.97
2019-04-03T08:28:01.351Z,11.33
2019-04-03T08:33:15.269Z,12.17
2019-04-03T08:35:35.751Z,11.57
2019-04-03T08:38:01.741Z,11.67
2019-04-03T08:40:30.108Z,10.33
2019-04-03T08:45:38.403Z,12.10
2019-04-03T08:48:07.124Z,11.70
2019-04-03T08:50:34.828Z,11.63
2019-04-03T08:53:03.185Z,12.13
2019-04-03T08:55:31.817Z,10.60
2019-04-03T08:57:59.933Z,10.97
2019-04-03T09:00:31.392Z,11.30
2019-04-03T09:05:31.148Z,11.20
2019-04-03T09:07:59.826Z,12.20
2019-04-03T09:10:27.854Z,10.43
2019-04-03T09:12:56.433Z,11.30
2019-04-03T09:17:59.419Z,11.60
2019-04-03T09:23:02.078Z,11.20
2019-04-03T09:25:31.605Z,11.47
2019-04-03T09:27:59.723Z,12.20
2019-04-03T09:30:28.180Z,12.50
2019-04-03T09:32:59.383Z,11.90
2019-04-03T09:35:25.028Z,11.83
2019-04-03T09:37:53.438Z,11.10
2019-04-03T09:40:21.804Z,11.97
2019-04-03T09:42:51.578Z,11.07
2019-04-03T09:45:19.568Z,10.83
2019-04-03T09:50:22.990Z,11.35
2019-04-03T09:52:50.834Z,11.10
2019-04-03T09:55:19.016Z,10.23
2019-04-03T09:57:47.737Z,10.67
2019-04-03T10:00:16.193Z,10.37
2019-04-03T10:02:44.422Z,10.33
2019-04-03T10:05:12.764Z,11.00
2019-04-03T10:07:41.121Z,10.60
2019-04-03T10:12:47.307Z,11.00
2019-04-03T10:15:12.155Z,10.50
2019-04-03T10:17:40.610Z,10.07
2019-04-03T10:20:09.114Z,9.40
2019-04-03T10:22:37.456Z,9.73
2019-04-03T10:27:43.547Z,10.20
2019-04-03T10:30:10.100Z,10.13
2019-04-03T10:32:38.547Z,10.40
2019-04-03T10:35:08.236Z,9.20
2019-04-03T10:37:36.652Z,9.40
2019-04-03T10:40:05.925Z,10.30
2019-04-03T10:42:34.649Z,9.70
2019-04-03T10:45:02.750Z,9.40
2019-04-03T10:47:41.318Z,8.87
2019-04-03T10:49:59.669Z,8.80
2019-04-03T10:52:27.841Z,8.40
2019-04-03T10:54:58.210Z,10.55
2019-04-03T10:57:27.540Z,10.40
2019-04-03T10:59:55.901Z,10.87
2019-04-03T11:02:24.389Z,10.50
2019-04-03T11:04:53.581Z,9.93
2019-04-03T11:09:56.396Z,10.52
2019-04-03T11:12:24.763Z,9.53
2019-04-03T11:14:53.157Z,7.60
2019-04-03T11:17:21.482Z,9.00
2019-04-03T11:19:49.904Z,7.83
2019-04-03T11:22:18.264Z,8.40
2019-04-03T11:24:46.613Z,7.53
2019-04-03T11:27:15.325Z,8.30
2019-04-03T11:29:43.455Z,6.97
2019-04-03T11:32:11.937Z,7.10
2019-04-03T11:34:40.375Z,4.10
2019-04-03T11:37:08.791Z,4.40
2019-04-03T11:42:24.189Z,5.20
2019-04-03T11:44:42.850Z,5.60
2019-04-03T11:47:13.062Z,5.60
2019-04-03T11:49:39.674Z,3.57
2019-04-03T11:52:08.404Z,3.50
2019-04-03T11:54:38.865Z,3.25
2019-04-03T11:57:04.856Z,4.27
2019-04-03T11:59:33.257Z,3.83
2019-04-03T12:02:01.647Z,3.30
2019-04-03T12:04:30.197Z,4.80
2019-04-03T12:06:58.643Z,5.20
2019-04-03T12:09:26.698Z,5.12
2019-04-03T12:11:55.561Z,5.60
2019-04-03T12:14:23.688Z,4.90
2019-04-03T12:16:51.834Z,4.77
2019-04-03T12:19:20.942Z,4.40
2019-04-03T12:21:50.851Z,4.20
2019-04-03T12:24:17.672Z,3.80
2019-04-03T12:26:46.088Z,4.17
2019-04-03T12:29:14.451Z,3.80
2019-04-03T12:31:43.809Z,4.83
2019-04-03T12:34:12.152Z,4.37
2019-04-03T12:36:40.533Z,4.03
2019-04-03T12:39:09.852Z,3.47
2019-04-03T12:41:38.219Z,3.67
2019-04-03T12:44:06.854Z,3.60
2019-04-03T12:46:36.457Z,3.50
2019-04-03T12:51:39.969Z,4.60
2019-04-03T12:54:08.372Z,3.07
2019-04-03T12:56:37.054Z,3.27
2019-04-03T12:59:07.420Z,3.40
2019-04-03T13:01:33.612Z,2.70
2019-04-03T13:04:01.975Z,2.80
2019-04-03T13:06:30.326Z,3.70
2019-04-03T13:08:58.672Z,3.70
2019-04-03T13:11:27.025Z,3.70
2019-04-03T13:13:55.376Z,2.20
2019-04-03T13:16:24.718Z,2.50
2019-04-03T13:18:53.192Z,2.07
2019-04-03T13:21:21.539Z,1.53
2019-04-03T13:23:49.904Z,1.80
2019-04-03T13:26:18.553Z,1.60
2019-04-03T13:31:20.973Z,1.48
2019-04-03T13:33:49.343Z,1.30
2019-04-03T13:36:18.748Z,1.47
2019-04-03T13:38:46.094Z,1.40
2019-04-03T13:41:15.749Z,1.10
2019-04-03T13:43:43.860Z,1.43
2019-04-03T13:48:48.337Z,1.30
2019-04-03T13:51:16.708Z,1.93
2019-04-03T13:53:45.390Z,1.77
2019-04-03T13:56:13.451Z,1.70
2019-04-03T14:03:51.439Z,1.37
2019-04-03T14:06:18.892Z,1.43
2019-04-03T14:13:56.295Z,1.40
2019-04-03T14:18:58.799Z,1.33
2019-04-03T14:21:27.763Z,1.17
2019-04-03T14:23:55.789Z,1.50
2019-04-03T14:26:24.128Z,1.77
2019-04-03T14:31:34.299Z,1.30
2019-04-03T14:36:30.616Z,1.50
2019-04-03T14:38:58.983Z,1.17
2019-04-03T14:41:27.647Z,1.07
2019-04-03T14:49:09.277Z,1.45
2019-04-03T14:51:37.623Z,2.10
2019-04-03T14:54:08.241Z,1.50
2019-04-03T14:56:35.128Z,1.50
2019-04-03T14:59:03.610Z,1.40
2019-04-03T15:14:23.561Z,1.50
2019-04-03T15:19:30.171Z,1.40
2019-04-03T15:22:01.307Z,1.70
2019-04-03T15:24:26.843Z,1.93
2019-04-03T15:26:55.109Z,1.80
2019-04-03T15:29:23.240Z,2.37
2019-04-03T15:31:51.610Z,1.60
2019-04-03T15:36:54.421Z,1.70
2019-04-03T15:39:22.793Z,1.97
2019-04-03T15:41:51.109Z,2.00
2019-04-03T15:44:20.987Z,1.80
2019-04-03T15:49:22.210Z,1.77
2019-04-03T15:51:50.524Z,2.17
2019-04-03T15:54:19.178Z,1.40
2019-04-03T15:56:47.528Z,1.90
2019-04-03T15:59:15.894Z,1.87
2019-04-03T16:04:18.625Z,1.60
2019-04-03T16:06:47.351Z,1.87
2019-04-03T16:09:18.336Z,1.53
2019-04-03T16:11:43.830Z,1.63
2019-04-03T16:14:12.473Z,1.62
2019-04-03T16:16:40.500Z,1.40
2019-04-03T16:19:10.986Z,1.40
2019-04-03T16:21:37.588Z,1.80
2019-04-03T16:26:43.297Z,1.50
2019-04-03T16:34:20.135Z,1.70
2019-04-03T16:36:49.708Z,1.52
2019-04-03T16:41:51.176Z,1.67
2019-04-03T16:44:19.518Z,1.57
2019-04-03T16:46:47.970Z,1.70
2019-04-03T16:49:16.571Z,1.97
2019-04-03T16:51:44.747Z,1.80
2019-04-03T16:54:13.033Z,1.80
2019-04-03T16:56:41.640Z,1.90
2019-04-03T17:01:47.145Z,2.20
2019-04-03T17:04:25.637Z,2.00
2019-04-03T17:06:45.022Z,2.03
2019-04-03T17:09:12.622Z,3.30
2019-04-03T17:11:43.507Z,2.20
2019-04-03T17:14:09.016Z,2.40
2019-04-03T17:19:11.428Z,1.80
2019-04-03T17:21:40.256Z,3.00
2019-04-03T17:24:08.542Z,3.27
2019-04-03T17:26:48.356Z,2.30
2019-04-03T17:29:06.182Z,1.80
2019-04-03T17:31:34.184Z,2.10
2019-04-03T17:34:02.420Z,3.40
2019-04-03T17:36:30.549Z,4.72
2019-04-03T17:38:58.948Z,6.70
2019-04-03T17:41:30.293Z,3.80
2019-04-03T17:43:55.668Z,3.60
2019-04-03T17:46:24.131Z,2.80
2019-04-03T17:48:55.271Z,3.20
2019-04-03T17:51:21.849Z,3.03
2019-04-03T17:53:50.268Z,2.03
2019-04-03T17:56:18.673Z,2.12
2019-04-03T17:58:47.994Z,3.03
2019-04-03T18:01:15.490Z,1.80
2019-04-03T18:03:43.905Z,3.20
2019-04-03T18:08:47.576Z,3.97
2019-04-03T18:11:15.905Z,2.80
2019-04-03T18:16:18.469Z,3.60
2019-04-03T18:18:49.656Z,3.00
2019-04-03T18:21:17.089Z,3.30
2019-04-03T18:26:17.896Z,5.63
2019-04-03T18:28:46.421Z,30.07
2019-04-03T18:33:50.115Z,2.60
2019-04-03T18:36:18.443Z,3.87
2019-04-03T18:38:46.859Z,2.80
2019-04-03T18:43:49.456Z,7.70
2019-04-03T18:49:00.950Z,7.40
2019-04-03T18:51:25.396Z,2.90
2019-04-03T18:56:28.139Z,6.55
2019-04-03T18:58:56.619Z,3.40
2019-04-03T19:01:24.975Z,2.80
2019-04-03T19:03:53.357Z,2.70
2019-04-03T19:08:56.013Z,2.30
2019-04-03T19:11:24.347Z,1.90
2019-04-03T19:13:52.700Z,2.30
2019-04-03T19:16:29.435Z,1.77
2019-04-03T19:18:49.392Z,2.60
2019-04-03T19:26:26.300Z,2.37
2019-04-03T19:31:28.985Z,2.23
2019-04-03T19:36:31.662Z,5.03
2019-04-03T19:39:00.978Z,5.60
2019-04-03T19:44:03.582Z,7.10
2019-04-03T19:46:32.926Z,8.30
2019-04-03T19:49:02.346Z,7.03
2019-04-03T19:51:31.684Z,8.20
2019-04-03T19:54:00.062Z,8.30
2019-04-03T19:59:04.884Z,9.73
2019-04-03T20:01:31.001Z,9.53
2019-04-03T20:03:59.352Z,10.45
2019-04-03T20:09:01.965Z,12.50
2019-04-03T20:11:30.288Z,11.23
2019-04-03T20:13:59.638Z,11.23
2019-04-03T20:16:28.012Z,11.17
2019-04-03T20:18:56.878Z,9.87
2019-04-03T20:26:33.219Z,13.70
2019-04-03T20:29:02.232Z,11.83
2019-04-03T20:31:29.909Z,11.53
2019-04-03T20:36:32.479Z,12.95
2019-04-03T20:39:00.821Z,10.83
2019-04-03T20:46:37.933Z,11.40
2019-04-03T20:49:07.198Z,8.80
2019-04-03T20:51:35.588Z,8.87
2019-04-03T20:59:12.393Z,10.27
2019-04-03T21:01:41.654Z,9.32
2019-04-03T21:04:09.993Z,8.43
2019-04-03T21:06:38.773Z,9.30
2019-04-03T21:11:42.389Z,9.70
2019-04-03T21:14:11.392Z,8.07
2019-04-03T21:16:39.444Z,6.73
2019-04-03T21:19:07.779Z,6.80
2019-04-03T21:21:36.120Z,7.67
2019-04-03T21:24:04.678Z,7.10
2019-04-03T21:26:32.887Z,8.00
2019-04-03T21:29:01.237Z,8.13
2019-04-03T21:31:29.568Z,7.63
2019-04-03T21:33:57.966Z,8.25
2019-04-03T21:39:02.599Z,8.80
2019-04-03T21:41:31.857Z,7.40
2019-04-03T21:44:00.539Z,8.03
2019-04-03T21:46:28.549Z,9.52
2019-04-03T21:48:57.856Z,8.60
2019-04-03T21:51:27.279Z,6.80
2019-04-03T21:53:56.435Z,8.10
2019-04-03T21:56:23.980Z,6.70
2019-04-03T21:58:52.320Z,7.53
2019-04-03T22:01:20.713Z,5.97
2019-04-03T22:03:51.484Z,5.43
2019-04-03T22:06:17.409Z,6.20
2019-04-03T22:08:45.769Z,5.07
2019-04-03T22:11:14.113Z,5.83
2019-04-03T22:13:42.468Z,5.10
2019-04-03T22:16:11.153Z,5.23
2019-04-03T22:18:40.403Z,4.93
2019-04-03T22:21:08.783Z,5.23
2019-04-03T22:23:37.199Z,5.20
2019-04-03T22:26:05.500Z,7.65
2019-04-03T22:28:33.849Z,6.80
2019-04-03T22:31:02.183Z,7.00
2019-04-03T22:33:30.884Z,5.80
2019-04-03T22:36:01.309Z,6.10
2019-04-03T22:38:28.860Z,6.80
2019-04-03T22:40:57.233Z,5.97
2019-04-03T22:43:26.516Z,7.00
2019-04-03T22:45:54.879Z,5.23
2019-04-03T22:48:26.780Z,5.90
2019-04-03T22:50:51.742Z,5.37
2019-04-03T22:53:20.133Z,4.93
2019-04-03T22:55:49.114Z,5.10
2019-04-03T22:58:19.020Z,5.07
2019-04-03T23:00:45.884Z,4.97
2019-04-03T23:03:14.284Z,5.20
2019-04-03T23:05:42.633Z,4.90
2019-04-03T23:08:10.991Z,4.60
2019-04-03T23:13:13.753Z,7.07
2019-04-03T23:15:43.422Z,6.60
2019-04-03T23:18:13.995Z,6.60
2019-04-03T23:20:42.200Z,4.83
2019-04-03T23:23:11.476Z,5.50
2019-04-03T23:25:40.656Z,4.60
2019-04-03T23:28:09.012Z,5.17
2019-04-03T23:30:37.377Z,5.20
2019-04-03T23:33:05.719Z,5.53
2019-04-03T23:35:34.067Z,4.70
2019-04-03T23:38:02.510Z,5.20
2019-04-03T23:43:08.959Z,7.30
2019-04-03T23:45:36.530Z,7.20
2019-04-03T23:48:04.876Z,5.87
2019-04-03T23:50:33.236Z,6.47
2019-04-03T23:53:02.628Z,6.07
2019-04-03T23:55:30.989Z,5.67
2019-04-03T23:57:59.397Z,5.40
